createdAt,value
2019-03-31T00:00:20.550Z,78.65
2019-03-31T00:01:19.798Z,78.55
2019-03-31T00:02:19.795Z,79.06
2019-03-31T00:03:19.780Z,78.34
2019-03-31T00:04:19.780Z,79.16
2019-03-31T00:05:19.780Z,79.20
2019-03-31T00:06:19.830Z,78.96
2019-03-31T00:07:19.742Z,79.06
2019-03-31T00:08:19.746Z,79.20
2019-03-31T00:09:19.733Z,78.58
2019-03-31T00:10:19.729Z,78.38
2019-03-31T00:11:19.698Z,78.69
2019-03-31T00:12:19.683Z,79.93
2019-03-31T00:13:19.678Z,80.02
2019-03-31T00:14:19.667Z,80.37
2019-03-31T00:15:19.685Z,80.62
2019-03-31T00:16:19.638Z,81.54
2019-03-31T00:17:19.633Z,81.65
2019-03-31T00:18:19.624Z,81.75
2019-03-31T00:19:19.611Z,82.06
2019-03-31T00:20:19.621Z,81.54
2019-03-31T00:21:19.589Z,81.34
2019-03-31T00:22:19.629Z,81.13
2019-03-31T00:23:19.566Z,81.03
2019-03-31T00:24:20.583Z,81.13
2019-03-31T00:25:19.575Z,80.89
2019-03-31T00:26:19.539Z,81.54
2019-03-31T00:27:19.525Z,82.16
2019-03-31T00:28:19.513Z,82.57
2019-03-31T00:29:19.502Z,83.56
2019-03-31T00:30:19.491Z,83.36
2019-03-31T00:31:22.233Z,82.64
2019-03-31T00:32:19.471Z,82.68
2019-03-31T00:33:19.464Z,83.91
2019-03-31T00:34:19.457Z,83.50
2019-03-31T00:35:19.439Z,82.33
2019-03-31T00:36:19.462Z,81.75
2019-03-31T00:37:19.419Z,81.30
2019-03-31T00:38:19.405Z,81.13
2019-03-31T00:39:19.407Z,81.09
2019-03-31T00:40:19.387Z,80.89
2019-03-31T00:41:19.393Z,80.93
2019-03-31T00:42:19.364Z,80.72
2019-03-31T00:43:19.357Z,80.93
2019-03-31T00:44:19.344Z,80.89
2019-03-31T00:45:19.333Z,80.93
2019-03-31T00:46:19.363Z,81.03
2019-03-31T00:47:19.313Z,80.68
2019-03-31T00:48:19.307Z,80.41
2019-03-31T00:49:19.292Z,80.62
2019-03-31T00:50:19.281Z,80.79
2019-03-31T00:51:19.270Z,80.10
2019-03-31T00:52:19.277Z,80.51
2019-03-31T00:53:19.248Z,80.41
2019-03-31T00:54:19.238Z,80.58
2019-03-31T00:55:19.229Z,80.79
2019-03-31T00:56:19.216Z,80.79
2019-03-31T00:57:19.237Z,80.79
2019-03-31T00:58:19.202Z,80.51
2019-03-31T00:59:19.188Z,81.13
2019-03-31T01:00:19.174Z,80.82
2019-03-31T01:01:19.164Z,80.79
2019-03-31T01:02:19.173Z,80.27
2019-03-31T01:03:19.144Z,80.20
2019-03-31T01:04:19.134Z,80.06
2019-03-31T01:05:19.122Z,80.10
2019-03-31T01:06:19.114Z,81.03
2019-03-31T01:07:19.127Z,80.27
2019-03-31T01:08:19.090Z,79.79
2019-03-31T01:09:19.080Z,79.69
2019-03-31T01:10:19.072Z,78.76
2019-03-31T01:11:19.058Z,79.93
2019-03-31T01:12:19.077Z,79.72
2019-03-31T01:13:19.049Z,79.93
2019-03-31T01:14:19.027Z,80.44
2019-03-31T01:15:19.016Z,80.76
2019-03-31T01:16:19.007Z,80.65
2019-03-31T01:17:19.264Z,80.44
2019-03-31T01:18:18.996Z,80.55
2019-03-31T01:19:18.976Z,80.55
2019-03-31T01:20:18.964Z,80.55
2019-03-31T01:21:18.953Z,80.28
2019-03-31T01:22:18.943Z,80.58
2019-03-31T01:23:18.951Z,80.69
2019-03-31T01:24:18.926Z,80.90
2019-03-31T01:25:18.911Z,80.79
2019-03-31T01:26:18.900Z,80.69
2019-03-31T01:27:18.914Z,80.48
2019-03-31T01:28:18.879Z,80.28
2019-03-31T01:29:18.870Z,80.18
2019-03-31T01:30:18.859Z,80.18
2019-03-31T01:31:18.846Z,80.38
2019-03-31T01:32:18.856Z,80.69
2019-03-31T01:33:18.827Z,80.69
2019-03-31T01:34:18.816Z,80.38
2019-03-31T01:35:18.806Z,80.00
2019-03-31T01:36:18.802Z,80.07
2019-03-31T01:37:20.333Z,80.07
2019-03-31T01:38:18.774Z,79.66
2019-03-31T01:39:18.764Z,80.18
2019-03-31T01:40:18.752Z,80.42
2019-03-31T01:41:18.743Z,80.28
2019-03-31T01:42:18.753Z,80.32
2019-03-31T01:43:18.722Z,80.28
2019-03-31T01:44:18.711Z,80.21
2019-03-31T01:45:18.711Z,80.62
2019-03-31T01:46:18.690Z,80.58
2019-03-31T01:47:18.698Z,80.62
2019-03-31T01:48:18.678Z,80.42
2019-03-31T01:49:18.656Z,80.48
2019-03-31T01:50:18.652Z,80.52
2019-03-31T01:51:18.637Z,80.83
2019-03-31T01:52:18.644Z,80.32
2019-03-31T01:53:18.616Z,80.32
2019-03-31T01:54:18.607Z,80.62
2019-03-31T01:55:18.604Z,80.52
2019-03-31T01:56:18.584Z,80.83
2019-03-31T01:57:18.605Z,80.62
2019-03-31T01:58:18.564Z,80.11
2019-03-31T01:59:18.565Z,80.04
2019-03-31T02:00:18.551Z,80.52
2019-03-31T02:01:18.535Z,80.93
2019-03-31T02:02:18.521Z,80.73
2019-03-31T02:03:18.532Z,80.73
2019-03-31T02:04:18.501Z,81.07
2019-03-31T02:05:18.492Z,81.14
2019-03-31T02:06:18.479Z,81.28
2019-03-31T02:07:18.469Z,80.87
2019-03-31T02:08:18.477Z,80.76
2019-03-31T02:09:18.460Z,80.76
2019-03-31T02:10:18.458Z,80.76
2019-03-31T02:11:18.428Z,80.87
2019-03-31T02:12:18.426Z,81.28
2019-03-31T02:13:18.428Z,80.97
2019-03-31T02:14:18.393Z,80.56
2019-03-31T02:15:18.404Z,80.97
2019-03-31T02:16:18.380Z,81.49
2019-03-31T02:17:18.371Z,81.18
2019-03-31T02:18:18.375Z,81.70
2019-03-31T02:19:18.342Z,81.28
2019-03-31T02:20:18.340Z,81.49
2019-03-31T02:21:18.340Z,81.70
2019-03-31T02:22:18.313Z,81.80
2019-03-31T02:23:18.320Z,81.90
2019-03-31T02:24:18.297Z,81.59
2019-03-31T02:25:18.282Z,81.07
2019-03-31T02:26:18.270Z,80.97
2019-03-31T02:27:18.262Z,81.59
2019-03-31T02:28:18.267Z,81.70
2019-03-31T02:29:18.242Z,81.18
2019-03-31T02:30:18.233Z,81.11
2019-03-31T02:31:18.225Z,81.28
2019-03-31T02:32:24.310Z,81.70
2019-03-31T02:33:19.223Z,81.38
2019-03-31T02:34:18.188Z,81.80
2019-03-31T02:35:18.173Z,81.59
2019-03-31T02:36:18.186Z,81.21
2019-03-31T02:37:18.152Z,81.42
2019-03-31T02:38:18.165Z,81.84
2019-03-31T02:39:18.151Z,81.84
2019-03-31T02:40:18.124Z,80.76
2019-03-31T02:41:18.111Z,81.42
2019-03-31T02:42:18.100Z,81.84
2019-03-31T02:43:18.107Z,82.76
2019-03-31T02:44:18.081Z,82.25
2019-03-31T02:45:18.072Z,82.35
2019-03-31T02:46:18.060Z,82.66
2019-03-31T02:47:18.051Z,83.18
2019-03-31T02:48:18.059Z,82.56
2019-03-31T02:49:18.030Z,82.56
2019-03-31T02:50:18.016Z,82.35
2019-03-31T02:51:18.006Z,82.15
2019-03-31T02:52:17.997Z,82.29
2019-03-31T02:53:18.004Z,81.87
2019-03-31T02:54:17.981Z,81.98
2019-03-31T02:55:17.970Z,82.39
2019-03-31T02:56:17.976Z,82.60
2019-03-31T02:57:17.990Z,83.22
2019-03-31T02:58:17.966Z,82.60
2019-03-31T02:59:17.939Z,82.35
2019-03-31T03:00:17.913Z,82.08
2019-03-31T03:01:17.902Z,82.45
2019-03-31T03:02:17.910Z,82.08
2019-03-31T03:03:17.907Z,81.73
2019-03-31T03:04:17.875Z,82.35
2019-03-31T03:05:20.234Z,81.77
2019-03-31T03:06:17.851Z,81.15
2019-03-31T03:07:17.840Z,81.32
2019-03-31T03:08:17.835Z,81.21
2019-03-31T03:09:17.848Z,81.35
2019-03-31T03:10:17.809Z,81.52
2019-03-31T03:11:17.807Z,81.94
2019-03-31T03:12:17.789Z,81.98
2019-03-31T03:13:17.779Z,81.67
2019-03-31T03:14:17.788Z,81.67
2019-03-31T03:15:17.758Z,81.15
2019-03-31T03:16:17.758Z,81.05
2019-03-31T03:17:17.739Z,81.21
2019-03-31T03:18:17.729Z,80.94
2019-03-31T03:19:17.759Z,80.84
2019-03-31T03:20:17.705Z,80.94
2019-03-31T03:21:17.714Z,81.56
2019-03-31T03:22:17.692Z,81.56
2019-03-31T03:23:17.678Z,81.25
2019-03-31T03:24:17.711Z,81.05
2019-03-31T03:25:17.653Z,81.25
2019-03-31T03:26:17.651Z,81.19
2019-03-31T03:27:17.630Z,81.60
2019-03-31T03:28:17.617Z,81.39
2019-03-31T03:29:17.610Z,81.19
2019-03-31T03:30:17.810Z,81.29
2019-03-31T03:31:17.772Z,82.01
2019-03-31T03:32:17.617Z,81.39
2019-03-31T03:33:18.513Z,82.22
2019-03-31T03:34:17.559Z,82.53
2019-03-31T03:35:17.568Z,82.53
2019-03-31T03:36:17.576Z,81.91
2019-03-31T03:37:17.523Z,81.81
2019-03-31T03:38:17.543Z,81.81
2019-03-31T03:39:17.502Z,82.64
2019-03-31T03:40:17.517Z,83.46
2019-03-31T03:41:17.494Z,84.01
2019-03-31T03:42:17.483Z,84.53
2019-03-31T03:43:17.463Z,84.01
2019-03-31T03:44:17.452Z,84.01
2019-03-31T03:45:17.490Z,84.01
2019-03-31T03:46:17.431Z,83.50
2019-03-31T03:47:17.429Z,83.71
2019-03-31T03:48:17.414Z,84.12
2019-03-31T03:49:17.606Z,85.61
2019-03-31T03:50:17.414Z,85.50
2019-03-31T03:51:17.383Z,85.40
2019-03-31T03:52:17.368Z,85.61
2019-03-31T03:53:17.390Z,85.82
2019-03-31T03:54:17.353Z,85.71
2019-03-31T03:55:17.340Z,85.40
2019-03-31T03:56:17.350Z,84.78
2019-03-31T03:57:17.317Z,85.09
2019-03-31T03:58:17.309Z,84.99
2019-03-31T03:59:17.300Z,85.75
2019-03-31T04:00:17.285Z,86.13
2019-03-31T04:01:17.308Z,85.71
2019-03-31T04:02:17.279Z,85.65
2019-03-31T04:03:29.774Z,85.65
2019-03-31T04:04:18.240Z,85.75
2019-03-31T04:05:17.236Z,85.40
2019-03-31T04:06:17.243Z,85.30
2019-03-31T04:07:17.209Z,85.65
2019-03-31T04:08:17.204Z,85.65
2019-03-31T04:09:17.187Z,85.71
2019-03-31T04:10:17.186Z,85.30
2019-03-31T04:11:21.132Z,85.19
2019-03-31T04:12:17.163Z,85.34
2019-03-31T04:13:17.144Z,85.50
2019-03-31T04:14:17.144Z,85.40
2019-03-31T04:15:17.129Z,85.75
2019-03-31T04:16:17.136Z,85.34
2019-03-31T04:17:17.102Z,85.03
2019-03-31T04:18:17.092Z,85.19
2019-03-31T04:19:17.113Z,84.99
2019-03-31T04:20:17.071Z,84.30
2019-03-31T04:21:17.067Z,84.41
2019-03-31T04:22:17.069Z,84.37
2019-03-31T04:23:17.048Z,83.75
2019-03-31T04:24:17.028Z,84.20
2019-03-31T04:25:17.016Z,84.68
2019-03-31T04:26:17.068Z,84.09
2019-03-31T04:27:19.053Z,84.16
2019-03-31T04:28:16.989Z,83.64
2019-03-31T04:29:16.973Z,83.95
2019-03-31T04:30:16.966Z,84.27
2019-03-31T04:31:17.010Z,85.24
2019-03-31T04:32:16.965Z,86.58
2019-03-31T04:33:16.942Z,87.30
2019-03-31T04:34:17.143Z,86.89
2019-03-31T04:35:16.921Z,86.58
2019-03-31T04:36:16.902Z,86.37
2019-03-31T04:37:16.933Z,85.44
2019-03-31T04:38:16.889Z,85.55
2019-03-31T04:39:16.871Z,85.75
2019-03-31T04:40:16.860Z,86.10
2019-03-31T04:41:16.856Z,88.07
2019-03-31T04:42:16.839Z,87.66
2019-03-31T04:43:16.851Z,87.35
2019-03-31T04:44:16.818Z,87.35
2019-03-31T04:45:16.812Z,86.83
2019-03-31T04:46:16.799Z,86.21
2019-03-31T04:47:16.788Z,85.89
2019-03-31T04:48:16.805Z,85.58
2019-03-31T04:49:16.765Z,85.69
2019-03-31T04:50:16.755Z,86.31
2019-03-31T04:51:16.745Z,87.14
2019-03-31T04:52:16.772Z,86.52
2019-03-31T04:53:16.745Z,86.00
2019-03-31T04:54:16.713Z,86.00
2019-03-31T04:55:16.704Z,87.45
2019-03-31T04:56:16.691Z,87.35
2019-03-31T04:57:16.681Z,87.59
2019-03-31T04:58:16.696Z,86.72
2019-03-31T04:59:16.659Z,86.15
2019-03-31T05:00:16.649Z,86.21
2019-03-31T05:01:16.642Z,87.49
2019-03-31T05:02:16.628Z,87.90
2019-03-31T05:03:16.671Z,88.21
2019-03-31T05:04:16.611Z,88.15
2019-03-31T05:05:16.600Z,88.05
2019-03-31T05:06:16.588Z,87.49
2019-03-31T05:07:16.590Z,87.49
2019-03-31T05:08:16.570Z,87.38
2019-03-31T05:09:16.574Z,88.21
2019-03-31T05:10:16.552Z,88.15
2019-03-31T05:11:16.536Z,87.70
2019-03-31T05:12:16.934Z,87.49
2019-03-31T05:13:16.514Z,87.28
2019-03-31T05:14:16.541Z,87.59
2019-03-31T05:15:16.512Z,87.38
2019-03-31T05:16:16.495Z,87.49
2019-03-31T05:17:16.499Z,87.49
2019-03-31T05:18:16.465Z,87.38
2019-03-31T05:19:16.520Z,87.49
2019-03-31T05:20:16.445Z,87.59
2019-03-31T05:21:16.430Z,87.49
2019-03-31T05:22:16.427Z,87.49
2019-03-31T05:23:16.407Z,87.80
2019-03-31T05:24:16.426Z,87.28
2019-03-31T05:25:16.386Z,87.49
2019-03-31T05:26:16.379Z,86.55
2019-03-31T05:27:16.366Z,86.45
2019-03-31T05:28:16.356Z,86.35
2019-03-31T05:29:16.347Z,86.25
2019-03-31T05:30:16.354Z,86.55
2019-03-31T05:31:16.332Z,87.38
2019-03-31T05:32:16.315Z,87.38
2019-03-31T05:33:16.310Z,86.62
2019-03-31T05:34:19.229Z,86.66
2019-03-31T05:35:16.308Z,86.72
2019-03-31T05:36:16.272Z,86.21
2019-03-31T05:37:16.262Z,86.31
2019-03-31T05:38:16.250Z,86.00
2019-03-31T05:39:16.241Z,86.00
2019-03-31T05:40:16.256Z,87.97
2019-03-31T05:41:16.222Z,87.87
2019-03-31T05:42:16.216Z,86.72
2019-03-31T05:43:16.201Z,85.89
2019-03-31T05:44:16.188Z,87.35
2019-03-31T05:45:16.208Z,88.79
2019-03-31T05:46:16.171Z,88.79
2019-03-31T05:47:16.161Z,88.48
2019-03-31T05:48:16.153Z,88.07
2019-03-31T05:49:16.138Z,87.45
2019-03-31T05:50:16.125Z,87.35
2019-03-31T05:51:16.138Z,88.79
2019-03-31T05:52:16.104Z,90.14
2019-03-31T05:53:16.099Z,90.04
2019-03-31T05:54:16.095Z,88.48
2019-03-31T05:55:18.773Z,87.97
2019-03-31T05:56:16.131Z,88.28
2019-03-31T05:57:16.059Z,90.14
2019-03-31T05:58:16.044Z,90.62
2019-03-31T05:59:16.035Z,90.77
2019-03-31T06:00:16.029Z,90.41
2019-03-31T06:01:16.036Z,90.62
2019-03-31T06:02:16.001Z,90.20
2019-03-31T06:03:15.995Z,90.10
2019-03-31T06:04:15.984Z,89.69
2019-03-31T06:05:15.973Z,88.96
2019-03-31T06:06:15.989Z,90.10
2019-03-31T06:07:15.951Z,90.72
2019-03-31T06:08:15.941Z,90.93
2019-03-31T06:09:15.939Z,90.52
2019-03-31T06:10:15.918Z,90.00
2019-03-31T06:11:15.960Z,90.16
2019-03-31T06:12:15.900Z,90.10
2019-03-31T06:13:15.887Z,90.10
2019-03-31T06:14:15.880Z,90.20
2019-03-31T06:15:15.862Z,90.89
2019-03-31T06:16:15.893Z,90.99
2019-03-31T06:17:15.848Z,89.34
2019-03-31T06:18:15.838Z,89.86
2019-03-31T06:19:15.828Z,91.36
2019-03-31T06:20:15.809Z,92.19
2019-03-31T06:21:15.804Z,91.36
2019-03-31T06:22:15.858Z,91.67
2019-03-31T06:23:15.794Z,87.54
2019-03-31T06:24:15.767Z,90.53
2019-03-31T06:25:15.769Z,91.99
2019-03-31T06:26:15.753Z,92.36
2019-03-31T06:27:16.008Z,90.39
2019-03-31T06:28:15.729Z,90.19
2019-03-31T06:29:15.719Z,90.39
2019-03-31T06:30:15.732Z,91.42
2019-03-31T06:31:15.696Z,91.42
2019-03-31T06:32:15.703Z,88.70
2019-03-31T06:33:15.676Z,89.83
2019-03-31T06:34:15.664Z,91.80
2019-03-31T06:35:15.656Z,92.11
2019-03-31T06:36:15.655Z,91.80
2019-03-31T06:37:15.655Z,90.77
2019-03-31T06:38:15.623Z,90.04
2019-03-31T06:39:15.616Z,90.52
2019-03-31T06:40:15.609Z,90.72
2019-03-31T06:41:15.595Z,91.55
2019-03-31T06:42:15.606Z,92.68
2019-03-31T06:43:15.571Z,92.38
2019-03-31T06:44:15.565Z,90.68
2019-03-31T06:45:15.547Z,91.50
2019-03-31T06:46:15.544Z,92.13
2019-03-31T06:47:15.533Z,93.47
2019-03-31T06:48:15.534Z,91.46
2019-03-31T06:49:15.511Z,91.26
2019-03-31T06:50:15.499Z,90.53
2019-03-31T06:51:17.103Z,91.01
2019-03-31T06:52:15.473Z,90.95
2019-03-31T06:53:15.484Z,90.59
2019-03-31T06:54:15.458Z,92.10
2019-03-31T06:55:15.448Z,89.62
2019-03-31T06:56:15.435Z,89.01
2019-03-31T06:57:15.424Z,90.76
2019-03-31T06:58:15.438Z,91.96
2019-03-31T06:59:15.400Z,91.96
2019-03-31T07:00:15.431Z,91.85
2019-03-31T07:01:15.402Z,91.71
2019-03-31T07:02:15.368Z,90.57
2019-03-31T07:03:15.362Z,90.57
2019-03-31T07:04:15.366Z,91.81
2019-03-31T07:05:15.343Z,90.06
2019-03-31T07:06:15.326Z,87.38
2019-03-31T07:07:15.319Z,90.16
2019-03-31T07:08:15.309Z,90.84
2019-03-31T07:09:15.318Z,91.77
2019-03-31T07:10:15.291Z,90.53
2019-03-31T07:11:15.279Z,88.37
2019-03-31T07:12:15.265Z,89.61
2019-03-31T07:13:15.257Z,90.39
2019-03-31T07:14:15.273Z,90.49
2019-03-31T07:15:15.231Z,87.19
2019-03-31T07:16:15.252Z,87.36
2019-03-31T07:17:15.211Z,88.80
2019-03-31T07:18:16.050Z,87.05
2019-03-31T07:19:15.204Z,87.15
2019-03-31T07:20:15.200Z,88.39
2019-03-31T07:21:15.177Z,90.03
2019-03-31T07:22:15.156Z,88.80
2019-03-31T07:23:15.149Z,85.10
2019-03-31T07:24:15.139Z,89.07
2019-03-31T07:25:15.146Z,88.14
2019-03-31T07:26:15.116Z,86.91
2019-03-31T07:27:15.109Z,86.77
2019-03-31T07:28:15.099Z,88.31
2019-03-31T07:29:15.087Z,85.74
2019-03-31T07:30:15.105Z,85.12
2019-03-31T07:31:15.095Z,85.49
2019-03-31T07:32:15.054Z,87.55
2019-03-31T07:33:15.053Z,88.68
2019-03-31T07:34:15.035Z,88.02
2019-03-31T07:35:18.805Z,86.68
2019-03-31T07:36:15.062Z,82.89
2019-03-31T07:37:15.004Z,86.48
2019-03-31T07:38:14.989Z,86.68
2019-03-31T07:39:14.987Z,86.68
2019-03-31T07:40:15.082Z,85.82
2019-03-31T07:41:15.289Z,85.00
2019-03-31T07:42:14.974Z,86.54
2019-03-31T07:43:15.124Z,85.93
2019-03-31T07:44:15.477Z,86.60
2019-03-31T07:45:14.915Z,85.68
2019-03-31T07:46:14.924Z,86.30
2019-03-31T07:47:14.899Z,83.80
2019-03-31T07:48:14.895Z,84.72
2019-03-31T07:49:14.898Z,82.56
2019-03-31T07:50:14.862Z,83.49
2019-03-31T07:51:14.871Z,85.54
2019-03-31T07:52:14.841Z,83.59
2019-03-31T07:53:14.833Z,83.39
2019-03-31T07:54:14.828Z,82.93
2019-03-31T07:55:14.827Z,83.14
2019-03-31T07:56:16.231Z,79.66
2019-03-31T07:57:14.792Z,81.40
2019-03-31T07:58:14.804Z,82.83
2019-03-31T07:59:14.781Z,80.33
2019-03-31T08:00:14.759Z,81.26
2019-03-31T08:01:14.828Z,82.28
2019-03-31T08:02:14.736Z,80.51
2019-03-31T08:03:14.729Z,82.35
2019-03-31T08:04:14.717Z,79.89
2019-03-31T08:05:14.707Z,81.32
2019-03-31T08:06:14.695Z,77.73
2019-03-31T08:07:14.702Z,79.99
2019-03-31T08:08:14.674Z,79.48
2019-03-31T08:09:14.665Z,79.89
2019-03-31T08:10:14.651Z,82.04
2019-03-31T08:11:17.083Z,81.38
2019-03-31T08:12:14.630Z,79.27
2019-03-31T08:13:14.619Z,79.54
2019-03-31T08:14:14.612Z,80.26
2019-03-31T08:15:14.598Z,79.64
2019-03-31T08:16:14.608Z,78.01
2019-03-31T08:17:14.577Z,78.42
2019-03-31T08:18:14.567Z,78.42
2019-03-31T08:19:14.557Z,76.23
2019-03-31T08:20:14.545Z,77.97
2019-03-31T08:21:14.539Z,77.76
2019-03-31T08:22:14.543Z,76.13
2019-03-31T08:23:14.516Z,77.97
2019-03-31T08:24:14.507Z,76.95
2019-03-31T08:25:14.495Z,76.43
2019-03-31T08:26:14.533Z,77.87
2019-03-31T08:27:14.495Z,76.50
2019-03-31T08:28:14.462Z,75.68
2019-03-31T08:29:14.456Z,75.99
2019-03-31T08:30:14.441Z,77.83
2019-03-31T08:31:14.431Z,78.24
2019-03-31T08:32:14.437Z,75.65
2019-03-31T08:33:14.409Z,75.75
2019-03-31T08:34:14.400Z,75.85
2019-03-31T08:35:14.386Z,75.55
2019-03-31T08:36:14.377Z,75.85
2019-03-31T08:37:14.405Z,75.31
2019-03-31T08:38:14.359Z,75.62
2019-03-31T08:39:14.349Z,75.21
2019-03-31T08:40:14.340Z,76.19
2019-03-31T08:41:14.324Z,76.19
2019-03-31T08:42:14.314Z,74.87
2019-03-31T08:43:14.331Z,74.97
2019-03-31T08:44:14.293Z,74.97
2019-03-31T08:45:14.283Z,75.27
2019-03-31T08:46:14.278Z,72.92
2019-03-31T08:47:14.260Z,73.13
2019-03-31T08:48:14.274Z,74.97
2019-03-31T08:49:14.248Z,74.15
2019-03-31T08:50:14.229Z,74.46
2019-03-31T08:51:14.218Z,75.17
2019-03-31T08:52:14.207Z,74.25
2019-03-31T08:53:14.233Z,74.56
2019-03-31T08:54:14.187Z,75.17
2019-03-31T08:55:14.179Z,75.37
2019-03-31T08:56:14.194Z,74.97
2019-03-31T08:57:14.175Z,74.76
2019-03-31T08:58:14.146Z,74.05
2019-03-31T08:59:14.152Z,73.33
2019-03-31T09:00:14.126Z,73.33
2019-03-31T09:01:14.121Z,74.46
2019-03-31T09:02:14.103Z,74.56
2019-03-31T09:03:14.092Z,74.90
2019-03-31T09:04:14.104Z,74.69
2019-03-31T09:05:14.071Z,74.39
2019-03-31T09:06:14.059Z,74.39
2019-03-31T09:07:14.055Z,73.27
2019-03-31T09:08:14.041Z,73.88
2019-03-31T09:09:14.059Z,74.93
2019-03-31T09:10:14.023Z,74.69
2019-03-31T09:11:14.011Z,74.49
2019-03-31T09:12:14.008Z,75.10
2019-03-31T09:13:13.988Z,75.14
2019-03-31T09:14:14.004Z,74.63
2019-03-31T09:15:13.972Z,73.20
2019-03-31T09:16:13.962Z,74.43
2019-03-31T09:17:13.972Z,74.93
2019-03-31T09:18:13.935Z,75.17
2019-03-31T09:19:13.927Z,74.84
2019-03-31T09:20:13.931Z,74.87
2019-03-31T09:21:13.904Z,73.85
2019-03-31T09:22:13.896Z,76.20
2019-03-31T09:23:13.882Z,76.30
2019-03-31T09:24:13.877Z,74.97
2019-03-31T09:25:13.885Z,76.71
2019-03-31T09:26:13.848Z,75.59
2019-03-31T09:27:13.841Z,76.40
2019-03-31T09:28:13.831Z,76.09
2019-03-31T09:29:13.908Z,75.17
2019-03-31T09:30:13.832Z,75.48
2019-03-31T09:31:13.798Z,75.07
2019-03-31T09:32:13.788Z,75.59
2019-03-31T09:33:13.777Z,74.97
2019-03-31T09:34:13.771Z,75.27
2019-03-31T09:35:13.763Z,76.30
2019-03-31T09:36:16.488Z,75.89
2019-03-31T09:37:13.761Z,75.38
2019-03-31T09:38:13.727Z,75.38
2019-03-31T09:39:13.712Z,75.27
2019-03-31T09:40:13.706Z,74.97
2019-03-31T09:41:13.709Z,75.79
2019-03-31T09:42:13.686Z,74.97
2019-03-31T09:43:13.678Z,76.20
2019-03-31T09:44:13.665Z,74.87
2019-03-31T09:45:13.652Z,76.50
2019-03-31T09:46:13.660Z,76.30
2019-03-31T09:47:13.630Z,75.04
2019-03-31T09:48:13.617Z,76.40
2019-03-31T09:49:13.612Z,75.79
2019-03-31T09:50:17.013Z,75.59
2019-03-31T09:51:13.615Z,77.12
2019-03-31T09:52:13.577Z,74.87
2019-03-31T09:53:13.567Z,75.89
2019-03-31T09:54:13.556Z,75.48
2019-03-31T09:55:13.548Z,75.99
2019-03-31T09:56:15.189Z,75.99
2019-03-31T09:57:13.542Z,75.38
2019-03-31T09:58:13.534Z,75.38
2019-03-31T09:59:13.502Z,76.40
2019-03-31T10:00:13.495Z,75.99
2019-03-31T10:01:13.483Z,76.40
2019-03-31T10:02:13.498Z,75.07
2019-03-31T10:03:13.464Z,75.27
2019-03-31T10:04:13.476Z,75.42
2019-03-31T10:05:13.446Z,75.62
2019-03-31T10:06:13.440Z,75.93
2019-03-31T10:07:13.503Z,75.62
2019-03-31T10:08:13.414Z,76.95
2019-03-31T10:09:13.400Z,77.19
2019-03-31T10:10:13.387Z,76.37
2019-03-31T10:11:13.382Z,77.36
2019-03-31T10:12:13.366Z,76.88
2019-03-31T10:13:13.374Z,77.09
2019-03-31T10:14:13.348Z,77.05
2019-03-31T10:15:13.339Z,78.28
2019-03-31T10:16:13.346Z,77.19
2019-03-31T10:17:13.311Z,76.64
2019-03-31T10:18:13.323Z,76.57
2019-03-31T10:19:13.292Z,77.15
2019-03-31T10:20:13.287Z,76.43
2019-03-31T10:21:13.270Z,76.88
2019-03-31T10:22:13.259Z,76.27
2019-03-31T10:23:13.275Z,76.64
2019-03-31T10:24:13.239Z,75.65
2019-03-31T10:25:13.545Z,76.13
2019-03-31T10:26:15.988Z,76.43
2019-03-31T10:27:13.207Z,76.68
2019-03-31T10:28:13.248Z,76.78
2019-03-31T10:29:13.195Z,75.45
2019-03-31T10:30:13.180Z,76.57
2019-03-31T10:31:13.185Z,76.37
2019-03-31T10:32:13.157Z,77.09
2019-03-31T10:33:13.146Z,76.57
2019-03-31T10:34:13.157Z,76.47
2019-03-31T10:35:13.140Z,76.68
2019-03-31T10:36:13.113Z,77.46
2019-03-31T10:37:13.126Z,76.43
2019-03-31T10:38:13.106Z,76.98
2019-03-31T10:39:13.105Z,77.15
2019-03-31T10:40:13.072Z,76.47
2019-03-31T10:41:13.067Z,76.27
2019-03-31T10:42:13.048Z,76.47
2019-03-31T10:43:13.038Z,75.82
2019-03-31T10:44:13.049Z,77.05
2019-03-31T10:45:13.021Z,76.34
2019-03-31T10:46:13.009Z,76.40
2019-03-31T10:47:12.999Z,76.71
2019-03-31T10:48:20.437Z,74.97
2019-03-31T10:49:14.039Z,75.14
2019-03-31T10:50:12.965Z,74.87
2019-03-31T10:51:12.958Z,74.63
2019-03-31T10:52:12.998Z,74.22
2019-03-31T10:53:12.936Z,74.80
2019-03-31T10:54:12.966Z,72.96
2019-03-31T10:55:12.918Z,73.98
2019-03-31T10:56:12.914Z,74.90
2019-03-31T10:57:12.950Z,74.87
2019-03-31T10:58:12.882Z,74.05
2019-03-31T10:59:12.870Z,72.07
2019-03-31T11:00:12.879Z,71.97
2019-03-31T11:01:12.874Z,71.15
2019-03-31T11:02:12.843Z,71.39
2019-03-31T11:03:12.828Z,71.67
2019-03-31T11:04:12.819Z,71.50
2019-03-31T11:05:12.832Z,71.87
2019-03-31T11:06:12.804Z,71.67
2019-03-31T11:07:12.791Z,72.79
2019-03-31T11:08:12.833Z,71.12
2019-03-31T11:09:12.765Z,72.24
2019-03-31T11:10:12.774Z,70.92
2019-03-31T11:11:12.788Z,71.80
2019-03-31T11:12:12.731Z,70.68
2019-03-31T11:13:12.722Z,69.93
2019-03-31T11:14:12.712Z,70.24
2019-03-31T11:15:12.877Z,69.83
2019-03-31T11:16:12.691Z,68.68
2019-03-31T11:17:12.687Z,69.80
2019-03-31T11:18:12.680Z,69.09
2019-03-31T11:19:12.658Z,69.70
2019-03-31T11:20:12.651Z,67.43
2019-03-31T11:21:12.662Z,68.65
2019-03-31T11:22:12.635Z,67.83
2019-03-31T11:23:12.619Z,68.85
2019-03-31T11:24:12.606Z,67.83
2019-03-31T11:25:20.636Z,68.92
2019-03-31T11:26:13.605Z,67.39
2019-03-31T11:27:12.580Z,67.90
2019-03-31T11:28:12.565Z,66.10
2019-03-31T11:29:12.558Z,66.20
2019-03-31T11:30:12.547Z,68.13
2019-03-31T11:31:12.595Z,65.89
2019-03-31T11:32:12.526Z,65.97
2019-03-31T11:33:12.512Z,66.88
2019-03-31T11:34:12.500Z,66.88
2019-03-31T11:35:12.492Z,65.66
2019-03-31T11:36:12.481Z,66.17
2019-03-31T11:37:13.963Z,66.58
2019-03-31T11:38:12.458Z,65.22
2019-03-31T11:39:12.452Z,64.03
2019-03-31T11:40:12.443Z,63.42
2019-03-31T11:41:12.427Z,65.05
2019-03-31T11:42:12.439Z,65.56
2019-03-31T11:43:12.408Z,64.23
2019-03-31T11:44:12.395Z,64.26
2019-03-31T11:45:12.431Z,63.83
2019-03-31T11:46:12.375Z,64.87
2019-03-31T11:47:12.363Z,64.47
2019-03-31T11:48:12.374Z,63.86
2019-03-31T11:49:12.339Z,63.96
2019-03-31T11:50:12.331Z,65.59
2019-03-31T11:51:12.323Z,63.86
2019-03-31T11:52:12.308Z,66.30
2019-03-31T11:53:12.317Z,67.08
2019-03-31T11:54:12.288Z,65.53
2019-03-31T11:55:12.277Z,65.12
2019-03-31T11:56:12.265Z,66.00
2019-03-31T11:57:12.258Z,63.57
2019-03-31T11:58:12.264Z,66.00
2019-03-31T11:59:12.246Z,63.02
2019-03-31T12:00:12.224Z,65.36
2019-03-31T12:01:12.216Z,64.86
2019-03-31T12:02:26.116Z,63.64
2019-03-31T12:03:13.222Z,65.88
2019-03-31T12:04:12.180Z,63.20
2019-03-31T12:05:12.177Z,63.71
2019-03-31T12:06:12.164Z,64.32
2019-03-31T12:07:12.153Z,63.00
2019-03-31T12:08:12.638Z,61.04
2019-03-31T12:09:12.302Z,61.27
2019-03-31T12:10:12.127Z,62.39
2019-03-31T12:12:13.136Z,61.10
2019-03-31T12:13:12.087Z,63.13
2019-03-31T12:14:12.094Z,62.62
2019-03-31T12:15:12.063Z,64.86
2019-03-31T12:16:12.053Z,64.65
2019-03-31T12:17:12.046Z,63.33
2019-03-31T12:18:12.029Z,62.18
2019-03-31T12:19:12.044Z,66.05
2019-03-31T12:20:12.008Z,62.49
2019-03-31T12:21:11.997Z,64.42
2019-03-31T12:22:12.012Z,65.44
2019-03-31T12:23:11.986Z,63.81
2019-03-31T12:24:11.968Z,62.46
2019-03-31T12:25:11.976Z,63.98
2019-03-31T12:26:11.943Z,63.48
2019-03-31T12:27:21.925Z,63.17
2019-03-31T12:28:11.921Z,62.43
2019-03-31T12:29:11.917Z,61.41
2019-03-31T12:30:11.925Z,63.34
2019-03-31T12:31:11.891Z,61.41
2019-03-31T12:32:11.879Z,59.18
2019-03-31T12:33:11.904Z,63.17
2019-03-31T12:34:11.864Z,61.34
2019-03-31T12:35:11.915Z,63.37
2019-03-31T12:36:11.836Z,63.75
2019-03-31T12:37:11.825Z,63.85
2019-03-31T12:38:11.815Z,62.43
2019-03-31T12:39:11.812Z,60.50
2019-03-31T12:40:15.092Z,62.43
2019-03-31T12:41:11.813Z,60.20
2019-03-31T12:42:11.770Z,60.71
2019-03-31T12:43:11.769Z,63.95
2019-03-31T12:44:11.752Z,60.50
2019-03-31T12:45:11.746Z,59.89
2019-03-31T12:46:11.753Z,61.44
2019-03-31T12:47:11.747Z,61.44
2019-03-31T12:48:11.706Z,62.46
2019-03-31T12:49:11.707Z,63.45
2019-03-31T12:50:11.689Z,63.07
2019-03-31T12:51:11.700Z,60.60
2019-03-31T12:52:11.669Z,60.81
2019-03-31T12:53:11.655Z,63.95